Time;durP1;ratioP1;P1;durP2;ratioP2;P2;SDS_P1;SDS_P2;PMS_P1;PMS_P2;Temp;Humidity;BMP_temperature;BMP_pressure;BME280_temperature;BME280_humidity;BME280_pressure;Samples;Min_cycle;Max_cycle;Signal;HPM_P1;HPM_P2
2022/07/17 00:02:49;;;;;;;9.63;2.17;;;;;;;13.92;64.45;102743.22;10416828;28;20095;-69
2022/07/17 00:07:49;;;;;;;3.38;2.22;;;;;;;13.83;64.98;102733.34;10398596;28;20029;-68
2022/07/17 00:12:50;;;;;;;4.32;2.28;;;;;;;13.72;64.80;102738.16;10415879;28;20048;-69
2022/07/17 00:17:50;;;;;;;5.72;3.05;;;;;;;13.71;65.08;102747.31;10398736;28;20025;-68
2022/07/17 00:22:52;;;;;;;1.58;1.50;;;;;;;13.66;65.01;102736.13;10413833;28;20057;-68
2022/07/17 00:27:52;;;;;;;2.03;1.90;;;;;;;13.70;66.46;102732.03;10415605;28;20025;-69
2022/07/17 00:32:52;;;;;;;11.95;3.40;;;;;;;13.72;68.31;102734.59;10398021;28;20381;-69
2022/07/17 00:37:53;;;;;;;9.07;3.20;;;;;;;13.73;69.93;102728.94;10414796;28;20049;-68
2022/07/17 00:42:53;;;;;;;4.43;2.70;;;;;;;13.64;68.90;102721.81;10415438;28;20037;-69
2022/07/17 00:47:55;;;;;;;5.18;1.85;;;;;;;13.65;69.49;102719.94;10417815;28;20037;-69
2022/07/17 00:52:55;;;;;;;6.20;2.30;;;;;;;13.65;72.22;102706.34;10417348;28;20097;-69
2022/07/17 00:57:56;;;;;;;3.60;2.30;;;;;;;13.63;76.41;102692.06;10415033;28;20056;-69
2022/07/17 01:02:56;;;;;;;2.25;1.90;;;;;;;13.59;76.10;102686.13;10413323;28;20520;-69
2022/07/17 01:07:57;;;;;;;12.60;2.78;;;;;;;13.59;78.02;102699.72;10415071;28;20061;-69
2022/07/17 01:12:57;;;;;;;4.13;2.70;;;;;;;13.54;78.63;102704.00;10397761;28;20029;-69
2022/07/17 01:17:58;;;;;;;3.13;2.45;;;;;;;13.48;75.65;102705.53;10396392;28;20033;-68
2022/07/17 01:22:59;;;;;;;11.73;3.40;;;;;;;13.40;75.02;102714.56;10380277;28;20057;-70
2022/07/17 01:27:59;;;;;;;11.02;3.20;;;;;;;13.36;73.50;102713.19;10421430;28;20100;-69
2022/07/17 01:33:00;;;;;;;7.25;2.45;;;;;;;13.24;73.03;102709.06;10421330;28;20041;-69
2022/07/17 01:38:01;;;;;;;3.28;3.00;;;;;;;13.18;74.48;102712.50;10404129;28;20046;-69
2022/07/17 01:43:01;;;;;;;4.47;3.53;;;;;;;13.08;74.00;102704.53;10403910;28;20034;-70
2022/07/17 01:48:02;;;;;;;9.50;2.63;;;;;;;13.03;73.96;102707.72;10422193;28;20099;-69
2022/07/17 01:53:02;;;;;;;2.38;2.15;;;;;;;12.95;73.57;102705.00;10386599;28;20120;-70
2022/07/17 01:58:04;;;;;;;3.38;2.22;;;;;;;12.93;73.30;102708.94;10420843;28;20052;-69
2022/07/17 02:03:05;;;;;;;3.42;2.50;;;;;;;12.89;72.77;102704.81;10403659;28;20404;-69
2022/07/17 02:08:05;;;;;;;3.78;2.25;;;;;;;12.77;73.57;102688.00;10402854;28;20037;-69
2022/07/17 02:13:05;;;;;;;10.75;3.33;;;;;;;12.82;73.06;102701.09;10403845;28;20037;-69
2022/07/17 02:18:06;;;;;;;4.03;2.65;;;;;;;12.78;72.64;102700.56;10385887;28;20115;-69
2022/07/17 02:23:06;;;;;;;4.90;2.80;;;;;;;12.67;73.39;102707.19;10419972;28;20037;-69
2022/07/17 02:28:07;;;;;;;2.67;2.47;;;;;;;12.66;72.70;102716.34;10419691;28;20041;-69
2022/07/17 02:33:08;;;;;;;8.85;3.63;;;;;;;12.64;72.76;102717.56;10418471;28;20441;-68
2022/07/17 02:38:09;;;;;;;8.77;3.80;;;;;;;12.64;73.39;102734.72;10419666;28;20079;-69
2022/07/17 02:43:09;;;;;;;6.82;3.60;;;;;;;12.52;73.15;102727.88;10419292;28;20041;-68
2022/07/17 02:48:10;;;;;;;3.60;3.22;;;;;;;12.48;73.41;102730.06;10418949;28;20068;-69
2022/07/17 02:53:10;;;;;;;3.50;3.00;;;;;;;12.46;72.69;102737.53;10400554;28;20037;-69
2022/07/17 02:58:10;;;;;;;4.88;3.70;;;;;;;12.42;73.49;102749.75;10425467;28;20054;-69
2022/07/17 03:03:11;;;;;;;3.60;3.30;;;;;;;12.37;73.74;102732.25;10418942;28;20084;-69
2022/07/17 03:08:11;;;;;;;4.80;3.10;;;;;;;12.34;74.79;102726.09;10418282;28;20075;-70
2022/07/17 03:13:13;;;;;;;11.88;4.65;;;;;;;12.28;74.73;102723.19;10417432;28;20049;-68
2022/07/17 03:18:14;;;;;;;2.65;2.45;;;;;;;12.34;74.34;102738.84;10433182;28;20389;-69
2022/07/17 03:23:14;;;;;;;3.67;3.05;;;;;;;12.38;74.38;102733.94;10416538;28;20033;-69
2022/07/17 03:28:14;;;;;;;5.18;3.38;;;;;;;12.30;74.41;102734.75;10417207;28;20056;-68
2022/07/17 03:33:15;;;;;;;9.02;3.10;;;;;;;12.25;74.33;102726.25;10417251;28;20389;-69
2022/07/17 03:38:15;;;;;;;4.53;3.42;;;;;;;12.24;77.35;102717.25;10416802;28;20036;-69
2022/07/17 03:43:16;;;;;;;4.82;3.47;;;;;;;12.26;77.22;102728.81;10416988;28;20042;-69
2022/07/17 03:48:16;;;;;;;8.85;3.35;;;;;;;12.23;77.16;102720.16;10417084;28;20127;-69
2022/07/17 03:53:17;;;;;;;3.70;3.42;;;;;;;12.27;77.95;102716.06;10432561;28;20453;-69
2022/07/17 03:58:17;;;;;;;5.45;3.53;;;;;;;12.31;76.99;102734.59;10417616;28;20049;-69
2022/07/17 04:03:17;;;;;;;4.60;3.63;;;;;;;12.32;76.54;102744.47;10399815;28;20064;-69
2022/07/17 04:08:18;;;;;;;6.72;3.17;;;;;;;12.37;76.74;102751.25;10416664;28;20457;-70
2022/07/17 04:13:18;;;;;;;7.53;3.90;;;;;;;12.43;76.70;102756.88;10415883;28;20120;-69
2022/07/17 04:18:21;;;;;;;11.77;4.50;;;;;;;12.54;77.71;102744.88;10415822;28;20036;-69
2022/07/17 04:23:21;;;;;;;5.65;3.78;;;;;;;12.59;77.95;102747.94;10397423;28;20038;-69
2022/07/17 04:28:21;;;;;;;6.20;4.00;;;;;;;12.67;78.67;102756.13;10398492;28;20045;-69
2022/07/17 04:33:22;;;;;;;5.07;4.30;;;;;;;12.79;80.92;102748.47;10414339;28;20401;-69
2022/07/17 04:38:22;;;;;;;6.25;3.13;;;;;;;12.92;79.91;102748.88;10415194;28;20091;-69
2022/07/17 04:43:23;;;;;;;3.65;3.35;;;;;;;13.06;79.40;102744.63;10415097;28;20041;-69
2022/07/17 04:48:23;;;;;;;6.35;4.45;;;;;;;13.21;79.85;102742.94;10414508;28;20127;-69
2022/07/17 04:53:23;;;;;;;7.95;4.10;;;;;;;13.39;81.61;102741.94;10414986;28;20033;-69
2022/07/17 04:58:24;;;;;;;9.13;3.70;;;;;;;14.41;83.55;102743.00;10423545;28;20046;-69
2022/07/17 05:03:24;;;;;;;7.75;3.13;;;;;;;15.31;84.20;102736.97;10421907;28;20048;-69
2022/07/17 05:08:25;;;;;;;4.82;3.28;;;;;;;15.94;84.37;102727.47;10423580;28;20037;-69
2022/07/17 05:13:25;;;;;;;2.65;2.45;;;;;;;16.22;82.87;102732.28;10421505;28;20140;-70
2022/07/17 05:18:25;;;;;;;5.00;2.28;;;;;;;16.38;82.16;102740.25;10423100;28;20037;-69
2022/07/17 05:23:26;;;;;;;4.63;2.13;;;;;;;16.68;81.22;102738.28;10422341;28;20465;-69
2022/07/17 05:28:26;;;;;;;4.55;2.58;;;;;;;17.22;79.70;102741.59;10404310;28;20037;-70
2022/07/17 05:33:27;;;;;;;2.15;2.00;;;;;;;17.52;76.03;102740.41;10421969;28;20042;-70
2022/07/17 05:38:27;;;;;;;2.17;1.98;;;;;;;17.92;74.13;102748.91;10438617;28;20439;-70
2022/07/17 05:43:27;;;;;;;1.38;1.27;;;;;;;18.36;72.74;102747.69;10421794;28;20037;-69
2022/07/17 05:48:29;;;;;;;1.83;1.25;;;;;;;18.61;70.02;102753.47;10422512;28;20041;-65
2022/07/17 05:53:30;;;;;;;2.75;1.85;;;;;;;19.07;68.48;102746.44;10421986;28;20095;-64
2022/07/17 05:58:30;;;;;;;1.98;1.88;;;;;;;19.43;65.67;102748.75;10420263;28;20053;-63
2022/07/17 06:03:31;;;;;;;7.32;1.52;;;;;;;19.66;65.44;102757.47;10420759;28;20056;-63
2022/07/17 06:08:31;;;;;;;2.83;1.48;;;;;;;19.94;63.51;102759.09;10387315;28;20472;-63
2022/07/17 06:13:31;;;;;;;6.70;2.05;;;;;;;20.18;61.46;102754.81;10418481;28;20132;-63
2022/07/17 06:18:32;;;;;;;2.05;1.23;;;;;;;20.41;59.70;102765.31;10420773;28;20034;-63
2022/07/17 06:23:33;;;;;;;3.25;1.98;;;;;;;21.17;59.57;102774.66;10403389;28;20038;-62
2022/07/17 06:28:33;;;;;;;3.25;1.38;;;;;;;21.66;60.61;102778.53;10419828;28;20037;-63
2022/07/17 06:33:34;;;;;;;1.27;1.05;;;;;;;22.15;58.65;102776.78;10420268;28;20450;-63
2022/07/17 06:38:35;;;;;;;1.65;1.45;;;;;;;22.28;56.91;102784.94;10420430;28;20076;-63
2022/07/17 06:43:35;;;;;;;2.03;1.77;;;;;;;22.69;54.26;102788.88;10400815;28;20069;-63
2022/07/17 06:48:35;;;;;;;4.45;1.90;;;;;;;23.10;55.79;102785.34;10418900;28;20045;-63
2022/07/17 06:53:36;;;;;;;5.43;1.30;;;;;;;23.01;52.95;102786.75;10418789;28;20124;-62
2022/07/17 06:58:37;;;;;;;2.08;1.75;;;;;;;23.35;52.90;102790.66;10420479;28;20396;-63
2022/07/17 07:03:37;;;;;;;0.88;0.88;;;;;;;23.74;51.20;102785.59;10417985;28;20037;-62
2022/07/17 07:08:38;;;;;;;1.85;1.13;;;;;;;23.84;47.58;102787.75;10400653;28;20037;-63
2022/07/17 07:13:38;;;;;;;3.97;1.47;;;;;;;23.83;48.20;102781.38;10420131;28;20045;-71
2022/07/17 07:18:39;;;;;;;6.50;1.23;;;;;;;24.10;48.23;102783.66;10419549;28;20818;-70
2022/07/17 07:23:40;;;;;;;3.63;1.95;;;;;;;24.65;47.53;102787.88;10400779;28;20032;-71
2022/07/17 07:28:40;;;;;;;1.58;1.40;;;;;;;25.03;48.60;102781.69;10402182;28;20033;-70
2022/07/17 07:33:41;;;;;;;4.93;1.50;;;;;;;25.55;47.02;102775.09;10401056;28;20044;-69
2022/07/17 07:38:41;;;;;;;1.42;1.33;;;;;;;25.52;44.24;102765.34;10400162;28;20053;-70
2022/07/17 07:43:41;;;;;;;1.83;1.73;;;;;;;24.96;44.69;102767.97;10418150;28;20095;-69
2022/07/17 07:48:42;;;;;;;3.50;1.55;;;;;;;25.17;47.78;102771.97;10416775;28;20096;-70
2022/07/17 07:53:42;;;;;;;1.20;1.20;;;;;;;25.56;46.37;102760.13;10399068;28;20048;-70
2022/07/17 07:58:42;;;;;;;1.52;1.08;;;;;;;25.61;44.67;102771.31;10411736;28;20480;-70
2022/07/17 08:03:43;;;;;;;3.20;1.83;;;;;;;26.21;43.19;102771.38;10417551;28;20029;-70
2022/07/17 08:08:43;;;;;;;1.15;1.05;;;;;;;26.90;40.57;102761.66;10421611;28;20358;-71
2022/07/17 08:13:44;;;;;;;1.60;1.50;;;;;;;27.51;42.39;102755.81;10421306;28;20033;-70
2022/07/17 08:18:44;;;;;;;1.02;1.02;;;;;;;27.45;39.61;102743.81;10398419;28;20051;-70
2022/07/17 08:23:44;;;;;;;1.40;1.30;;;;;;;27.45;38.92;102757.72;10414997;28;20054;-69
2022/07/17 08:28:46;;;;;;;1.50;1.40;;;;;;;27.55;38.29;102757.78;10414911;28;20473;-70
2022/07/17 08:33:46;;;;;;;1.33;1.17;;;;;;;27.56;38.24;102751.09;10415172;28;20254;-70
2022/07/17 08:38:46;;;;;;;7.22;1.23;;;;;;;28.07;37.32;102755.34;10415719;28;20052;-69
2022/07/17 08:43:48;;;;;;;0.90;0.90;;;;;;;27.79;37.20;102747.13;10417784;28;20409;-70
2022/07/17 08:48:48;;;;;;;2.80;1.08;;;;;;;27.54;34.50;102742.19;10415534;28;20332;-70
2022/07/17 08:53:49;;;;;;;1.83;1.38;;;;;;;27.43;37.30;102737.66;10414294;28;20100;-70
2022/07/17 08:58:49;;;;;;;1.55;1.45;;;;;;;27.99;36.60;102746.41;10439512;28;20053;-69
2022/07/17 09:04:05;;;;;;;4.10;2.35;;;;;;;28.59;38.57;102729.34;10437929;28;20033;-71
2022/07/17 09:09:12;;;;;;;4.43;1.87;;;;;;;28.87;35.11;102737.22;10457074;28;20524;-72
2022/07/17 09:14:13;;;;;;;1.95;1.35;;;;;;;28.60;34.93;102737.47;10454740;28;20059;-69
2022/07/17 09:19:23;;;;;;;7.53;1.67;;;;;;;28.56;37.76;102735.47;10437885;28;20029;-69
2022/07/17 09:24:24;;;;;;;17.95;1.70;;;;;;;28.83;34.35;102738.06;10456827;28;20504;-70
2022/07/17 09:29:25;;;;;;;3.25;2.20;;;;;;;28.65;35.06;102731.03;10437860;28;20127;-70
2022/07/17 09:34:26;;;;;;;1.55;1.20;;;;;;;28.37;35.62;102730.41;10455300;28;20041;-69
2022/07/17 09:39:39;;;;;;;1.05;1.05;;;;;;;28.66;33.19;102729.97;10437455;28;20155;-70
2022/07/17 09:44:40;;;;;;;1.10;1.10;;;;;;;28.41;32.67;102731.56;10438281;28;20107;-69
2022/07/17 09:49:40;;;;;;;1.42;1.40;;;;;;;28.76;33.95;102738.34;10461542;28;20534;-69
2022/07/17 09:54:41;;;;;;;1.20;1.20;;;;;;;28.78;33.40;102727.75;10458026;28;20049;-70
2022/07/17 09:59:41;;;;;;;2.08;1.08;;;;;;;28.90;35.60;102739.44;10420394;28;20026;-70
2022/07/17 10:04:41;;;;;;;1.10;1.10;;;;;;;29.36;31.18;102736.72;10402706;28;20444;-70
2022/07/17 10:09:42;;;;;;;2.53;1.20;;;;;;;29.31;34.32;102738.66;10420163;28;20056;-69
2022/07/17 10:14:42;;;;;;;1.30;1.30;;;;;;;29.34;33.11;102743.69;10402722;28;20466;-70
2022/07/17 10:19:55;;;;;;;1.13;1.13;;;;;;;29.43;33.12;102742.84;10402167;28;20365;-73
2022/07/17 10:24:56;;;;;;;1.08;1.08;;;;;;;29.79;33.78;102750.34;10420887;28;20333;-71
2022/07/17 10:30:07;;;;;;;1.35;1.02;;;;;;;29.81;32.40;102753.72;10421886;28;20401;-74
2022/07/17 10:35:09;;;;;;;1.58;1.48;;;;;;;30.26;33.72;102743.50;10407404;28;20048;-72
2022/07/17 10:40:18;;;;;;;1.60;1.50;;;;;;;31.13;33.50;102754.16;10406500;28;20029;-74
2022/07/17 10:45:44;;;;;;;1.67;1.58;;;;;;;31.40;31.14;102740.53;10422485;28;20068;-72
2022/07/17 10:50:49;;;;;;;1.42;1.30;;;;;;;31.20;33.25;102749.88;10419663;28;20412;-72
2022/07/17 10:55:54;;;;;;;2.67;1.95;;;;;;;31.32;32.77;102755.13;10400942;28;20050;-72
2022/07/17 11:01:12;;;;;;;1.40;1.20;;;;;;;31.65;32.86;102742.22;10403953;28;20037;-71
2022/07/17 11:06:23;;;;;;;1.55;1.45;;;;;;;31.33;31.85;102734.41;10422103;28;20036;-72
2022/07/17 11:11:41;;;;;;;2.20;1.95;;;;;;;31.80;31.73;102732.81;10417264;28;20075;-73
2022/07/17 11:16:46;;;;;;;3.42;1.65;;;;;;;31.39;31.18;102743.59;10417690;28;20040;-72
2022/07/17 11:21:47;;;;;;;2.50;1.97;;;;;;;31.85;31.43;102741.16;10417322;28;20083;-72
2022/07/17 11:26:51;;;;;;;2.63;2.08;;;;;;;31.59;29.62;102737.81;10418281;28;20342;-71
2022/07/17 11:31:57;;;;;;;3.55;2.60;;;;;;;31.91;31.26;102734.41;10400691;28;20033;-71
2022/07/17 11:36:59;;;;;;;4.28;2.58;;;;;;;31.77;28.71;102736.19;10417669;28;20500;-70
2022/07/17 11:41:59;;;;;;;4.68;3.17;;;;;;;31.28;27.42;102737.25;10417137;28;20385;-73
2022/07/17 11:47:00;;;;;;;2.85;2.65;;;;;;;31.74;30.94;102734.00;10416008;28;20037;-70
2022/07/17 11:52:10;;;;;;;3.67;3.05;;;;;;;32.28;29.76;102731.97;10398615;28;20073;-74
2022/07/17 11:57:11;;;;;;;3.08;2.17;;;;;;;32.08;29.33;102733.91;10415980;28;20370;-70
2022/07/17 12:02:13;;;;;;;4.05;3.17;;;;;;;30.77;28.94;102727.31;10415947;28;20029;-70
2022/07/17 12:07:13;;;;;;;4.53;4.15;;;;;;;31.46;28.73;102732.88;10399047;28;20037;-73
2022/07/17 12:12:20;;;;;;;5.60;3.23;;;;;;;32.06;29.68;102719.34;10398548;28;20454;-72
2022/07/17 12:17:21;;;;;;;5.00;3.45;;;;;;;32.25;29.58;102710.13;10414961;28;20347;-71
2022/07/17 12:22:22;;;;;;;5.25;3.53;;;;;;;32.47;29.14;102710.41;10414726;28;20038;-71
2022/07/17 12:27:23;;;;;;;3.78;2.60;;;;;;;32.39;29.91;102709.09;10397655;28;20045;-71
2022/07/17 12:32:24;;;;;;;5.70;3.33;;;;;;;32.82;29.75;102699.78;10415746;28;20385;-70
2022/07/17 12:37:24;;;;;;;3.45;2.90;;;;;;;32.46;30.13;102696.72;10414490;28;20038;-70
2022/07/17 12:42:25;;;;;;;3.17;2.70;;;;;;;32.73;28.99;102693.19;10413670;28;20060;-70
2022/07/17 12:47:25;;;;;;;20.95;4.25;;;;;;;32.68;30.44;102685.69;10415014;28;20044;-69
2022/07/17 12:52:25;;;;;;;3.38;2.42;;;;;;;32.81;30.72;102684.09;10397187;28;20030;-70
2022/07/17 12:57:26;;;;;;;1.98;1.88;;;;;;;33.00;31.05;102673.69;10416444;28;20065;-69
2022/07/17 13:02:26;;;;;;;10.47;3.27;;;;;;;33.53;30.46;102666.81;10416050;28;20087;-70
2022/07/17 13:07:26;;;;;;;5.07;3.57;;;;;;;33.45;31.39;102659.09;10417057;28;20626;-72
2022/07/17 13:12:27;;;;;;;3.35;2.88;;;;;;;33.49;30.89;102649.75;10413923;28;20262;-72
2022/07/17 13:17:28;;;;;;;2.27;2.17;;;;;;;33.07;30.80;102636.78;10414243;28;20044;-70
2022/07/17 13:22:28;;;;;;;2.15;1.77;;;;;;;32.92;29.79;102628.63;10417217;28;20278;-72
2022/07/17 13:27:29;;;;;;;3.22;2.47;;;;;;;32.27;28.79;102619.00;10422593;28;20091;-73
2022/07/17 13:32:29;;;;;;;3.45;3.15;;;;;;;32.08;31.46;102604.16;10421938;28;20065;-70
2022/07/17 13:37:29;;;;;;;3.47;3.20;;;;;;;30.87;31.14;102613.66;10421636;28;20473;-72
2022/07/17 13:42:30;;;;;;;5.43;2.95;;;;;;;30.53;29.45;102604.09;10421667;28;20041;-75
2022/07/17 13:47:30;;;;;;;4.03;3.72;;;;;;;30.64;30.12;102607.69;10403820;28;20120;-69
2022/07/17 13:52:31;;;;;;;3.90;3.45;;;;;;;30.76;30.95;102602.53;10420645;28;20120;-70
2022/07/17 13:57:31;;;;;;;4.60;3.58;;;;;;;30.88;29.50;102606.94;10421884;28;20455;-75
2022/07/17 14:02:34;;;;;;;3.33;3.13;;;;;;;30.30;30.29;102613.25;10419983;28;20029;-71
2022/07/17 14:07:36;;;;;;;3.97;3.67;;;;;;;30.69;31.22;102604.81;10419787;28;20021;-76
2022/07/17 14:12:36;;;;;;;3.78;3.47;;;;;;;31.32;30.82;102595.56;10421296;28;20032;-73
2022/07/17 14:17:37;;;;;;;3.63;3.33;;;;;;;31.51;31.21;102601.25;10420651;28;20465;-75
2022/07/17 14:22:37;;;;;;;7.68;4.40;;;;;;;31.63;31.31;102601.66;10418722;28;20036;-74
2022/07/17 14:27:37;;;;;;;3.33;3.03;;;;;;;31.63;31.41;102592.41;10418632;28;20368;-69
2022/07/17 14:32:38;;;;;;;3.47;3.17;;;;;;;31.54;30.95;102600.66;10434444;28;20033;-71
2022/07/17 14:37:38;;;;;;;4.30;3.58;;;;;;;31.29;29.55;102596.16;10420546;28;20059;-70
2022/07/17 14:42:39;;;;;;;4.05;3.63;;;;;;;31.03;31.87;102584.41;10419430;28;20061;-70
2022/07/17 14:47:40;;;;;;;6.97;4.13;;;;;;;30.41;31.17;102581.31;10417947;28;20037;-70
2022/07/17 14:52:40;;;;;;;4.43;4.03;;;;;;;30.20;32.21;102580.63;10417726;28;20057;-69
2022/07/17 14:57:40;;;;;;;3.45;3.10;;;;;;;30.67;32.39;102565.16;10418010;28;20290;-71
2022/07/17 15:02:41;;;;;;;4.17;3.70;;;;;;;30.30;31.63;102566.56;10418404;28;20061;-70
2022/07/17 15:07:41;;;;;;;4.85;3.67;;;;;;;29.63;30.79;102557.72;10400642;28;20370;-70
2022/07/17 15:12:42;;;;;;;5.38;4.05;;;;;;;29.44;32.26;102554.72;10400959;28;20052;-70
2022/07/17 15:17:42;;;;;;;7.22;3.72;;;;;;;29.11;32.09;102547.88;10422895;28;20117;-70
2022/07/17 15:22:43;;;;;;;5.75;4.00;;;;;;;28.65;31.32;102533.97;10421811;28;20041;-69
2022/07/17 15:27:43;;;;;;;5.43;4.10;;;;;;;28.27;31.66;102530.63;10419304;28;20120;-72
2022/07/17 15:32:44;;;;;;;5.00;4.22;;;;;;;28.50;32.31;102534.00;10403363;28;20448;-71
2022/07/17 15:37:44;;;;;;;4.45;3.95;;;;;;;28.56;32.40;102512.50;10417332;28;20474;-70
2022/07/17 15:42:45;;;;;;;9.40;5.03;;;;;;;28.28;31.40;102521.13;10415872;28;20036;-71
2022/07/17 15:47:46;;;;;;;7.70;4.90;;;;;;;28.26;32.21;102517.78;10416592;28;20096;-70
2022/07/17 15:52:47;;;;;;;6.43;4.78;;;;;;;28.19;32.14;102506.09;10398924;28;20461;-70
2022/07/17 15:57:48;;;;;;;6.47;4.43;;;;;;;28.44;32.79;102508.06;10403406;28;20049;-71
2022/07/17 16:02:48;;;;;;;6.65;3.95;;;;;;;28.28;33.25;102481.31;10416529;28;20142;-71
2022/07/17 16:07:51;;;;;;;4.55;3.72;;;;;;;27.87;33.58;102472.91;10431283;28;20033;-70
2022/07/17 16:12:51;;;;;;;8.63;5.40;;;;;;;27.68;34.47;102478.16;10414819;28;20064;-69
2022/07/17 16:17:51;;;;;;;4.55;4.25;;;;;;;27.91;33.97;102471.25;10414499;28;20080;-70
2022/07/17 16:22:52;;;;;;;14.30;7.77;;;;;;;27.79;33.79;102462.31;10416100;28;20457;-71
2022/07/17 16:27:52;;;;;;;6.90;3.97;;;;;;;27.46;34.02;102461.66;10415008;28;20365;-69
2022/07/17 16:32:53;;;;;;;6.88;5.00;;;;;;;26.71;34.38;102472.16;10414052;28;20030;-70
2022/07/17 16:37:53;;;;;;;8.68;4.68;;;;;;;26.31;35.55;102462.38;10414558;28;20136;-70
2022/07/17 16:42:53;;;;;;;6.47;3.47;;;;;;;26.13;35.60;102458.09;10430815;28;20029;-70
2022/07/17 16:47:54;;;;;;;7.05;4.78;;;;;;;25.93;35.71;102457.88;10413967;28;20037;-70
2022/07/17 16:52:54;;;;;;;9.43;5.77;;;;;;;25.62;36.10;102451.16;10414523;28;20392;-69
2022/07/17 16:57:55;;;;;;;5.88;4.53;;;;;;;25.64;35.61;102454.50;10419120;28;20372;-70
2022/07/17 17:02:56;;;;;;;7.38;4.57;;;;;;;25.62;36.18;102452.03;10404709;28;20128;-70
2022/07/17 17:07:56;;;;;;;5.78;4.78;;;;;;;25.25;37.09;102446.31;10424080;28;20604;-70
2022/07/17 17:12:57;;;;;;;5.13;4.63;;;;;;;25.27;36.52;102444.97;10422733;28;20124;-70
2022/07/17 17:17:57;;;;;;;7.38;4.88;;;;;;;25.06;37.66;102435.53;10404754;28;20481;-70
2022/07/17 17:22:59;;;;;;;5.18;4.63;;;;;;;24.94;37.43;102443.13;10422518;28;20120;-70
2022/07/17 17:28:00;;;;;;;8.00;5.32;;;;;;;24.95;37.48;102435.63;10422789;28;20036;-71
2022/07/17 17:33:00;;;;;;;10.82;5.68;;;;;;;24.94;38.62;102429.25;10422019;28;20512;-70
2022/07/17 17:38:01;;;;;;;6.32;5.13;;;;;;;24.81;38.54;102430.47;10420491;28;20045;-70
2022/07/17 17:43:02;;;;;;;4.95;4.40;;;;;;;24.71;39.76;102416.47;10421075;28;20068;-70
2022/07/17 17:48:02;;;;;;;4.65;3.78;;;;;;;24.66;39.89;102410.03;10403955;28;20033;-71
2022/07/17 17:53:03;;;;;;;11.75;4.85;;;;;;;24.49;40.20;102393.47;10421912;28;20087;-69
2022/07/17 17:58:04;;;;;;;6.50;3.60;;;;;;;24.62;40.29;102409.69;10421533;28;20054;-69
2022/07/17 18:03:04;;;;;;;5.75;4.18;;;;;;;24.37;41.24;102405.44;10403172;28;20068;-70
2022/07/17 18:08:05;;;;;;;5.38;4.07;;;;;;;24.45;40.76;102406.16;10419980;28;20440;-69
2022/07/17 18:13:05;;;;;;;5.20;4.38;;;;;;;24.44;40.49;102405.31;10402634;28;20044;-70
2022/07/17 18:18:06;;;;;;;4.25;3.63;;;;;;;24.26;41.86;102406.38;10401770;28;20033;-70
2022/07/17 18:23:08;;;;;;;8.43;3.90;;;;;;;24.26;41.79;102400.84;10418164;28;20079;-71
2022/07/17 18:28:09;;;;;;;4.95;3.85;;;;;;;24.25;41.72;102382.56;10401588;28;20045;-70
2022/07/17 18:33:09;;;;;;;5.13;3.75;;;;;;;24.09;42.37;102387.03;10418929;28;20095;-70
2022/07/17 18:38:10;;;;;;;4.90;3.17;;;;;;;24.09;42.24;102400.00;10419173;28;20060;-70
2022/07/17 18:43:11;;;;;;;6.15;4.18;;;;;;;24.02;42.91;102393.81;10401490;28;20033;-70
2022/07/17 18:48:11;;;;;;;7.72;3.85;;;;;;;23.88;43.09;102383.06;10418223;28;20033;-72
2022/07/17 18:53:11;;;;;;;4.43;3.88;;;;;;;23.74;44.65;102403.00;10400956;28;20122;-71
2022/07/17 18:58:12;;;;;;;3.95;3.65;;;;;;;23.70;43.88;102402.66;10418679;28;20081;-69
2022/07/17 19:03:12;;;;;;;4.13;3.38;;;;;;;23.58;44.48;102411.00;10384287;28;20041;-70
2022/07/17 19:08:13;;;;;;;8.32;3.90;;;;;;;23.43;43.90;102403.25;10400285;28;20385;-70
2022/07/17 19:13:13;;;;;;;4.63;4.00;;;;;;;23.38;44.08;102397.63;10416636;28;20033;-71
2022/07/17 19:18:13;;;;;;;5.90;4.00;;;;;;;23.32;43.51;102409.66;10416638;28;20064;-71
2022/07/17 19:23:14;;;;;;;3.22;2.85;;;;;;;23.16;44.44;102408.50;10417560;28;20430;-70
2022/07/17 19:28:14;;;;;;;5.30;4.28;;;;;;;23.09;44.12;102412.50;10400299;28;20044;-71
2022/07/17 19:33:15;;;;;;;8.30;3.88;;;;;;;22.93;45.07;102414.94;10417338;28;20037;-70
2022/07/17 19:38:15;;;;;;;8.23;3.88;;;;;;;22.83;43.72;102417.47;10416957;28;20029;-70
2022/07/17 19:43:16;;;;;;;4.45;3.75;;;;;;;22.69;45.23;102414.13;10399447;28;20381;-70
2022/07/17 19:48:16;;;;;;;8.80;4.00;;;;;;;22.58;44.87;102409.44;10414909;28;20125;-70
2022/07/17 19:53:17;;;;;;;9.48;5.15;;;;;;;22.45;45.58;102417.97;10415964;28;20083;-69
2022/07/17 19:58:17;;;;;;;11.15;4.13;;;;;;;22.32;45.31;102419.06;10416085;28;20067;-70
2022/07/17 20:03:18;;;;;;;3.85;3.28;;;;;;;22.18;46.07;102421.22;10415674;28;20045;-70
2022/07/17 20:08:18;;;;;;;4.32;3.47;;;;;;;22.08;45.12;102431.13;10398309;28;20041;-69
2022/07/17 20:13:18;;;;;;;6.75;4.55;;;;;;;21.90;45.23;102427.38;10398407;28;20124;-70
2022/07/17 20:18:19;;;;;;;7.90;4.70;;;;;;;21.78;45.00;102438.38;10417697;28;20053;-70
2022/07/17 20:23:20;;;;;;;10.20;4.38;;;;;;;21.58;44.79;102433.16;10418781;28;20065;-70
2022/07/17 20:28:20;;;;;;;5.07;4.25;;;;;;;21.38;44.66;102438.09;10398852;28;20037;-71
2022/07/17 20:33:20;;;;;;;5.55;4.10;;;;;;;21.16;44.67;102443.22;10414733;28;20042;-70
2022/07/17 20:38:21;;;;;;;7.90;5.15;;;;;;;20.91;44.73;102451.56;10415365;28;20120;-70
2022/07/17 20:43:22;;;;;;;4.75;4.35;;;;;;;20.73;45.13;102454.31;10416426;28;20037;-70
2022/07/17 20:48:23;;;;;;;8.25;5.28;;;;;;;20.52;45.36;102448.16;10414808;28;20038;-66
2022/07/17 20:53:24;;;;;;;9.68;5.45;;;;;;;20.36;45.76;102448.72;10397789;28;20060;-67
2022/07/17 20:58:24;;;;;;;8.77;5.55;;;;;;;20.11;45.79;102440.44;10421346;28;20493;-67
2022/07/17 21:03:28;;;;;;;11.77;5.88;;;;;;;20.09;46.00;102451.66;10413590;28;20121;-67
2022/07/17 21:08:29;;;;;;;6.60;4.55;;;;;;;19.90;46.41;102444.41;10414808;28;20045;-65
2022/07/17 21:13:29;;;;;;;7.13;4.43;;;;;;;19.84;47.26;102454.38;10413329;28;20141;-66
2022/07/17 21:18:29;;;;;;;7.63;4.75;;;;;;;19.84;47.83;102456.28;10414440;28;20103;-67
2022/07/17 21:23:30;;;;;;;7.60;5.03;;;;;;;19.77;48.03;102466.50;10413619;28;20377;-66
2022/07/17 21:28:30;;;;;;;10.23;5.45;;;;;;;19.64;49.24;102457.25;10414248;28;20117;-66
2022/07/17 21:33:31;;;;;;;10.77;4.47;;;;;;;19.54;48.62;102454.09;10412824;28;20045;-66
2022/07/17 21:38:32;;;;;;;6.75;5.00;;;;;;;19.44;48.81;102456.50;10412773;28;20053;-66
2022/07/17 21:43:34;;;;;;;8.13;4.45;;;;;;;19.28;48.94;102458.66;10434917;28;20457;-66
2022/07/17 21:48:34;;;;;;;7.57;5.15;;;;;;;19.15;49.76;102450.50;10436447;28;20370;-66
2022/07/17 21:53:36;;;;;;;8.35;4.80;;;;;;;19.01;50.32;102448.84;10420949;28;20033;-71
2022/07/17 21:58:38;;;;;;;10.80;5.60;;;;;;;18.91;50.28;102445.69;10435895;28;20497;-69
2022/07/17 22:03:39;;;;;;;12.50;5.65;;;;;;;18.80;50.51;102447.22;10420140;28;20046;-70
2022/07/17 22:08:39;;;;;;;10.77;5.78;;;;;;;18.68;50.57;102438.75;10420696;28;20068;-71
2022/07/17 22:13:40;;;;;;;14.32;6.25;;;;;;;18.61;50.70;102450.81;10436044;28;20029;-71
2022/07/17 22:18:41;;;;;;;8.57;4.38;;;;;;;18.47;51.25;102442.56;10419595;28;20491;-71
2022/07/17 22:23:41;;;;;;;6.63;4.68;;;;;;;18.46;52.06;102442.81;10420845;28;20045;-70
2022/07/17 22:28:42;;;;;;;12.13;5.78;;;;;;;18.47;53.39;102444.47;10419931;28;20034;-71
2022/07/17 22:33:42;;;;;;;5.38;4.35;;;;;;;18.43;53.10;102444.06;10420121;28;20033;-70
2022/07/17 22:38:43;;;;;;;9.93;4.90;;;;;;;18.32;53.08;102437.34;10419758;28;20424;-70
2022/07/17 22:43:44;;;;;;;8.55;5.03;;;;;;;18.26;53.26;102435.44;10421751;28;20033;-71
2022/07/17 22:48:44;;;;;;;6.70;4.88;;;;;;;18.20;54.04;102428.03;10439193;28;20038;-71
2022/07/17 22:53:45;;;;;;;9.98;6.22;;;;;;;18.19;53.76;102430.97;10434264;28;20040;-71
2022/07/17 22:58:45;;;;;;;8.07;5.43;;;;;;;18.04;53.50;102425.72;10417835;28;20057;-70
2022/07/17 23:03:46;;;;;;;6.88;5.32;;;;;;;17.94;54.24;102422.56;10418585;28;20037;-71